< < Back
Terminal Aerodrome Forecast


Current Version              Previous Versions:   1  2  3  4  5  6  7  8  9  

Terminal Aerodrome Forecast

881
FTUS42 KFFC 190300 AAB
TAFCSG
TAF AMD
KCSG 190331Z 1904/1924 03012G21KT 6SM -SHRA FEW009 SCT015 OVC040
      TEMPO 1905/1908 SCT009 BKN015 BKN035
     FM190800 03016G25KT 6SM -SHRA OVC008
     FM191200 03014G24KT 6SM BR BKN015
     FM191900 04012G21KT P6SM BKN024=



Latest METAR

497
SAUS70 KWBC 200300 RRA
MTRCSG
METAR KCSG 200251Z AUTO 04010G17KT 10SM OVC027 14/10 A3015 RMK AO2
RAE0159 SLP207 P0000 60000 T01440100 51012


USA.gov is the U.S. government's official web portal to all federal, state and local government web resources and services.